sensor_id;sensor_type;location;lat;lon;timestamp;P1;durP1;ratioP1;P2;durP2;ratioP2
12407;SDS011;6268;48.188;17.134;2022-07-23T00:00:43;12.38;;;11.20;;
12407;SDS011;6268;48.188;17.134;2022-07-23T00:03:13;8.10;;;7.30;;
12407;SDS011;6268;48.188;17.134;2022-07-23T00:05:43;6.32;;;5.93;;
12407;SDS011;6268;48.188;17.134;2022-07-23T00:08:12;13.60;;;12.40;;
12407;SDS011;6268;48.188;17.134;2022-07-23T00:10:41;14.25;;;13.10;;
12407;SDS011;6268;48.188;17.134;2022-07-23T00:13:10;10.30;;;9.40;;
12407;SDS011;6268;48.188;17.134;2022-07-23T00:15:39;9.00;;;8.30;;
12407;SDS011;6268;48.188;17.134;2022-07-23T00:18:08;14.27;;;12.02;;
12407;SDS011;6268;48.188;17.134;2022-07-23T00:20:36;12.75;;;11.63;;
12407;SDS011;6268;48.188;17.134;2022-07-23T00:23:07;8.15;;;7.35;;
12407;SDS011;6268;48.188;17.134;2022-07-23T00:25:35;8.10;;;7.30;;
12407;SDS011;6268;48.188;17.134;2022-07-23T00:28:04;8.80;;;8.20;;
12407;SDS011;6268;48.188;17.134;2022-07-23T00:30:33;10.02;;;9.13;;
12407;SDS011;6268;48.188;17.134;2022-07-23T00:33:03;7.18;;;6.68;;
12407;SDS011;6268;48.188;17.134;2022-07-23T00:35:34;7.20;;;6.78;;
12407;SDS011;6268;48.188;17.134;2022-07-23T00:38:09;10.27;;;9.25;;
12407;SDS011;6268;48.188;17.134;2022-07-23T00:40:39;12.38;;;11.05;;
12407;SDS011;6268;48.188;17.134;2022-07-23T00:43:08;12.10;;;10.85;;
12407;SDS011;6268;48.188;17.134;2022-07-23T00:45:37;9.73;;;8.88;;
12407;SDS011;6268;48.188;17.134;2022-07-23T00:48:06;14.13;;;12.70;;
12407;SDS011;6268;48.188;17.134;2022-07-23T00:50:35;13.05;;;11.65;;
12407;SDS011;6268;48.188;17.134;2022-07-23T00:53:04;11.73;;;10.60;;
12407;SDS011;6268;48.188;17.134;2022-07-23T00:55:36;14.45;;;13.07;;
12407;SDS011;6268;48.188;17.134;2022-07-23T00:58:06;11.68;;;10.52;;
12407;SDS011;6268;48.188;17.134;2022-07-23T01:00:36;12.02;;;10.20;;
12407;SDS011;6268;48.188;17.134;2022-07-23T01:03:05;15.35;;;12.68;;
12407;SDS011;6268;48.188;17.134;2022-07-23T01:05:34;11.93;;;10.73;;
12407;SDS011;6268;48.188;17.134;2022-07-23T01:08:05;13.13;;;11.77;;
12407;SDS011;6268;48.188;17.134;2022-07-23T01:10:35;10.90;;;9.85;;
12407;SDS011;6268;48.188;17.134;2022-07-23T01:13:05;13.65;;;12.43;;
12407;SDS011;6268;48.188;17.134;2022-07-23T01:15:37;10.75;;;9.85;;
12407;SDS011;6268;48.188;17.134;2022-07-23T01:18:06;10.63;;;9.75;;
12407;SDS011;6268;48.188;17.134;2022-07-23T01:20:36;10.57;;;9.65;;
12407;SDS011;6268;48.188;17.134;2022-07-23T01:23:06;8.90;;;8.07;;
12407;SDS011;6268;48.188;17.134;2022-07-23T01:25:35;11.27;;;9.90;;
12407;SDS011;6268;48.188;17.134;2022-07-23T01:28:04;10.32;;;8.93;;
12407;SDS011;6268;48.188;17.134;2022-07-23T01:30:32;10.88;;;9.95;;
12407;SDS011;6268;48.188;17.134;2022-07-23T01:33:01;10.15;;;9.30;;
12407;SDS011;6268;48.188;17.134;2022-07-23T01:35:30;10.88;;;9.88;;
12407;SDS011;6268;48.188;17.134;2022-07-23T01:37:58;10.60;;;9.57;;
12407;SDS011;6268;48.188;17.134;2022-07-23T01:40:28;8.50;;;7.78;;
12407;SDS011;6268;48.188;17.134;2022-07-23T01:42:57;9.98;;;9.18;;
12407;SDS011;6268;48.188;17.134;2022-07-23T01:45:26;8.63;;;7.80;;
12407;SDS011;6268;48.188;17.134;2022-07-23T01:47:55;9.82;;;8.93;;
12407;SDS011;6268;48.188;17.134;2022-07-23T01:50:24;10.25;;;9.15;;
12407;SDS011;6268;48.188;17.134;2022-07-23T01:52:52;10.25;;;9.35;;
12407;SDS011;6268;48.188;17.134;2022-07-23T01:55:21;10.00;;;9.10;;
12407;SDS011;6268;48.188;17.134;2022-07-23T01:57:51;9.02;;;8.43;;
12407;SDS011;6268;48.188;17.134;2022-07-23T02:00:20;6.90;;;6.30;;
12407;SDS011;6268;48.188;17.134;2022-07-23T02:02:49;7.88;;;7.10;;
12407;SDS011;6268;48.188;17.134;2022-07-23T02:05:18;8.30;;;7.50;;
12407;SDS011;6268;48.188;17.134;2022-07-23T02:07:46;8.32;;;7.63;;
12407;SDS011;6268;48.188;17.134;2022-07-23T02:10:15;5.97;;;5.45;;
12407;SDS011;6268;48.188;17.134;2022-07-23T02:12:44;6.53;;;6.00;;
12407;SDS011;6268;48.188;17.134;2022-07-23T02:15:14;6.95;;;6.38;;
12407;SDS011;6268;48.188;17.134;2022-07-23T02:17:43;6.85;;;6.30;;
12407;SDS011;6268;48.188;17.134;2022-07-23T02:20:12;10.15;;;9.20;;
12407;SDS011;6268;48.188;17.134;2022-07-23T02:22:41;9.93;;;8.93;;
12407;SDS011;6268;48.188;17.134;2022-07-23T02:25:10;11.20;;;8.63;;
12407;SDS011;6268;48.188;17.134;2022-07-23T02:27:38;8.85;;;8.15;;
12407;SDS011;6268;48.188;17.134;2022-07-23T02:30:08;8.57;;;7.80;;
12407;SDS011;6268;48.188;17.134;2022-07-23T02:32:39;10.20;;;8.63;;
12407;SDS011;6268;48.188;17.134;2022-07-23T02:35:08;10.00;;;9.00;;
12407;SDS011;6268;48.188;17.134;2022-07-23T02:37:37;7.95;;;6.97;;
12407;SDS011;6268;48.188;17.134;2022-07-23T02:40:06;6.65;;;6.25;;
12407;SDS011;6268;48.188;17.134;2022-07-23T02:42:35;6.60;;;6.10;;
12407;SDS011;6268;48.188;17.134;2022-07-23T02:45:04;7.55;;;7.03;;
12407;SDS011;6268;48.188;17.134;2022-07-23T02:47:34;7.05;;;6.47;;
12407;SDS011;6268;48.188;17.134;2022-07-23T02:50:05;10.73;;;7.45;;
12407;SDS011;6268;48.188;17.134;2022-07-23T02:52:35;9.00;;;7.35;;
12407;SDS011;6268;48.188;17.134;2022-07-23T02:55:04;7.90;;;7.30;;
12407;SDS011;6268;48.188;17.134;2022-07-23T02:57:33;7.20;;;6.60;;
12407;SDS011;6268;48.188;17.134;2022-07-23T03:00:03;7.57;;;6.78;;
12407;SDS011;6268;48.188;17.134;2022-07-23T03:02:34;7.50;;;6.85;;
12407;SDS011;6268;48.188;17.134;2022-07-23T03:05:05;8.40;;;7.60;;
12407;SDS011;6268;48.188;17.134;2022-07-23T03:07:35;7.68;;;7.05;;
12407;SDS011;6268;48.188;17.134;2022-07-23T03:10:04;6.82;;;6.32;;
12407;SDS011;6268;48.188;17.134;2022-07-23T03:12:34;5.78;;;5.38;;
12407;SDS011;6268;48.188;17.134;2022-07-23T03:15:03;6.03;;;5.50;;
12407;SDS011;6268;48.188;17.134;2022-07-23T03:17:33;6.07;;;5.68;;
12407;SDS011;6268;48.188;17.134;2022-07-23T03:20:01;6.25;;;5.82;;
12407;SDS011;6268;48.188;17.134;2022-07-23T03:22:33;6.63;;;6.03;;
12407;SDS011;6268;48.188;17.134;2022-07-23T03:25:01;6.60;;;6.10;;
12407;SDS011;6268;48.188;17.134;2022-07-23T03:27:31;6.22;;;5.72;;
12407;SDS011;6268;48.188;17.134;2022-07-23T03:30:00;6.28;;;5.70;;
12407;SDS011;6268;48.188;17.134;2022-07-23T03:32:28;6.32;;;5.90;;
12407;SDS011;6268;48.188;17.134;2022-07-23T03:34:58;5.75;;;5.38;;
12407;SDS011;6268;48.188;17.134;2022-07-23T03:37:28;6.22;;;5.65;;
12407;SDS011;6268;48.188;17.134;2022-07-23T03:39:59;6.32;;;5.60;;
12407;SDS011;6268;48.188;17.134;2022-07-23T03:42:27;6.88;;;6.32;;
12407;SDS011;6268;48.188;17.134;2022-07-23T03:44:56;6.40;;;5.68;;
12407;SDS011;6268;48.188;17.134;2022-07-23T03:47:25;6.03;;;5.63;;
12407;SDS011;6268;48.188;17.134;2022-07-23T03:49:53;7.18;;;6.30;;
12407;SDS011;6268;48.188;17.134;2022-07-23T03:52:22;7.18;;;6.57;;
12407;SDS011;6268;48.188;17.134;2022-07-23T03:54:52;7.40;;;6.70;;
12407;SDS011;6268;48.188;17.134;2022-07-23T03:57:21;7.15;;;6.55;;
12407;SDS011;6268;48.188;17.134;2022-07-23T03:59:50;7.22;;;6.65;;
12407;SDS011;6268;48.188;17.134;2022-07-23T04:02:18;6.90;;;6.30;;
12407;SDS011;6268;48.188;17.134;2022-07-23T04:04:47;6.40;;;6.00;;
12407;SDS011;6268;48.188;17.134;2022-07-23T04:07:16;6.32;;;5.82;;
12407;SDS011;6268;48.188;17.134;2022-07-23T04:09:45;6.38;;;5.78;;
12407;SDS011;6268;48.188;17.134;2022-07-23T04:12:15;6.38;;;5.88;;
12407;SDS011;6268;48.188;17.134;2022-07-23T04:14:44;7.13;;;6.43;;
12407;SDS011;6268;48.188;17.134;2022-07-23T04:17:13;7.25;;;6.50;;
12407;SDS011;6268;48.188;17.134;2022-07-23T04:19:42;7.50;;;6.68;;
12407;SDS011;6268;48.188;17.134;2022-07-23T04:22:11;7.88;;;6.55;;
12407;SDS011;6268;48.188;17.134;2022-07-23T04:24:39;7.97;;;7.35;;
12407;SDS011;6268;48.188;17.134;2022-07-23T04:27:08;11.95;;;10.82;;
12407;SDS011;6268;48.188;17.134;2022-07-23T04:29:38;13.93;;;12.80;;
12407;SDS011;6268;48.188;17.134;2022-07-23T04:32:07;11.52;;;10.32;;
12407;SDS011;6268;48.188;17.134;2022-07-23T04:34:36;10.32;;;9.63;;
12407;SDS011;6268;48.188;17.134;2022-07-23T04:37:05;9.65;;;8.85;;
12407;SDS011;6268;48.188;17.134;2022-07-23T04:39:34;7.72;;;7.13;;
12407;SDS011;6268;48.188;17.134;2022-07-23T04:42:03;7.25;;;6.68;;
12407;SDS011;6268;48.188;17.134;2022-07-23T04:44:31;7.72;;;7.13;;
12407;SDS011;6268;48.188;17.134;2022-07-23T04:47:01;8.00;;;7.30;;
12407;SDS011;6268;48.188;17.134;2022-07-23T04:49:30;7.72;;;6.68;;
12407;SDS011;6268;48.188;17.134;2022-07-23T04:52:00;6.78;;;6.20;;
12407;SDS011;6268;48.188;17.134;2022-07-23T04:54:28;7.35;;;6.75;;
12407;SDS011;6268;48.188;17.134;2022-07-23T04:56:57;7.13;;;6.63;;
12407;SDS011;6268;48.188;17.134;2022-07-23T04:59:26;7.00;;;6.43;;
12407;SDS011;6268;48.188;17.134;2022-07-23T05:01:55;7.35;;;6.75;;
12407;SDS011;6268;48.188;17.134;2022-07-23T05:04:25;6.82;;;6.35;;
12407;SDS011;6268;48.188;17.134;2022-07-23T05:06:53;11.07;;;7.72;;
12407;SDS011;6268;48.188;17.134;2022-07-23T05:09:22;7.15;;;6.75;;
12407;SDS011;6268;48.188;17.134;2022-07-23T05:11:51;6.90;;;6.40;;
12407;SDS011;6268;48.188;17.134;2022-07-23T05:14:20;7.28;;;6.78;;
12407;SDS011;6268;48.188;17.134;2022-07-23T05:16:50;7.10;;;6.60;;
12407;SDS011;6268;48.188;17.134;2022-07-23T05:19:19;7.13;;;6.43;;
12407;SDS011;6268;48.188;17.134;2022-07-23T05:21:52;7.35;;;6.70;;
12407;SDS011;6268;48.188;17.134;2022-07-23T05:24:21;6.85;;;6.30;;
12407;SDS011;6268;48.188;17.134;2022-07-23T05:26:49;7.45;;;6.80;;
12407;SDS011;6268;48.188;17.134;2022-07-23T05:29:18;7.10;;;6.45;;
12407;SDS011;6268;48.188;17.134;2022-07-23T05:31:47;6.97;;;6.47;;
12407;SDS011;6268;48.188;17.134;2022-07-23T05:34:16;9.55;;;6.50;;
12407;SDS011;6268;48.188;17.134;2022-07-23T05:36:44;10.63;;;6.20;;
12407;SDS011;6268;48.188;17.134;2022-07-23T05:39:14;7.03;;;6.38;;
12407;SDS011;6268;48.188;17.134;2022-07-23T05:41:43;7.07;;;6.47;;
12407;SDS011;6268;48.188;17.134;2022-07-23T05:44:12;5.97;;;5.63;;
12407;SDS011;6268;48.188;17.134;2022-07-23T05:46:40;6.75;;;6.25;;
12407;SDS011;6268;48.188;17.134;2022-07-23T05:49:09;7.70;;;6.50;;
12407;SDS011;6268;48.188;17.134;2022-07-23T05:51:38;6.78;;;6.28;;
12407;SDS011;6268;48.188;17.134;2022-07-23T05:54:07;7.72;;;7.03;;
12407;SDS011;6268;48.188;17.134;2022-07-23T05:56:37;7.40;;;6.78;;
12407;SDS011;6268;48.188;17.134;2022-07-23T05:59:06;7.20;;;6.70;;
12407;SDS011;6268;48.188;17.134;2022-07-23T06:01:35;7.07;;;6.65;;
12407;SDS011;6268;48.188;17.134;2022-07-23T06:04:04;6.72;;;6.18;;
12407;SDS011;6268;48.188;17.134;2022-07-23T06:06:33;5.63;;;5.13;;
12407;SDS011;6268;48.188;17.134;2022-07-23T06:09:01;6.97;;;6.35;;
12407;SDS011;6268;48.188;17.134;2022-07-23T06:11:31;7.57;;;6.93;;
12407;SDS011;6268;48.188;17.134;2022-07-23T06:14:02;7.50;;;6.47;;
12407;SDS011;6268;48.188;17.134;2022-07-23T06:16:31;7.07;;;6.55;;
12407;SDS011;6268;48.188;17.134;2022-07-23T06:19:00;9.57;;;6.80;;
12407;SDS011;6268;48.188;17.134;2022-07-23T06:21:29;6.75;;;6.15;;
12407;SDS011;6268;48.188;17.134;2022-07-23T06:24:14;7.78;;;6.00;;
12407;SDS011;6268;48.188;17.134;2022-07-23T06:26:43;6.30;;;5.85;;
12407;SDS011;6268;48.188;17.134;2022-07-23T06:29:13;8.20;;;6.30;;
12407;SDS011;6268;48.188;17.134;2022-07-23T06:31:42;6.10;;;5.70;;
12407;SDS011;6268;48.188;17.134;2022-07-23T06:34:11;11.30;;;6.97;;
12407;SDS011;6268;48.188;17.134;2022-07-23T06:36:40;7.07;;;6.45;;
12407;SDS011;6268;48.188;17.134;2022-07-23T06:39:10;8.18;;;6.05;;
12407;SDS011;6268;48.188;17.134;2022-07-23T06:41:39;6.88;;;6.38;;
12407;SDS011;6268;48.188;17.134;2022-07-23T06:44:14;7.38;;;6.55;;
12407;SDS011;6268;48.188;17.134;2022-07-23T06:46:43;7.35;;;6.60;;
12407;SDS011;6268;48.188;17.134;2022-07-23T06:49:11;6.97;;;6.38;;
12407;SDS011;6268;48.188;17.134;2022-07-23T06:51:40;7.35;;;6.50;;
12407;SDS011;6268;48.188;17.134;2022-07-23T06:54:09;7.50;;;6.55;;
12407;SDS011;6268;48.188;17.134;2022-07-23T06:56:38;15.50;;;6.75;;
12407;SDS011;6268;48.188;17.134;2022-07-23T06:59:07;6.97;;;6.38;;
12407;SDS011;6268;48.188;17.134;2022-07-23T07:01:37;6.30;;;5.75;;
12407;SDS011;6268;48.188;17.134;2022-07-23T07:04:05;6.72;;;6.22;;
12407;SDS011;6268;48.188;17.134;2022-07-23T07:06:35;7.78;;;6.57;;
12407;SDS011;6268;48.188;17.134;2022-07-23T07:09:03;7.90;;;7.10;;
12407;SDS011;6268;48.188;17.134;2022-07-23T07:11:32;7.80;;;6.80;;
12407;SDS011;6268;48.188;17.134;2022-07-23T07:14:01;7.43;;;6.75;;
12407;SDS011;6268;48.188;17.134;2022-07-23T07:16:30;7.00;;;6.40;;
12407;SDS011;6268;48.188;17.134;2022-07-23T07:19:00;7.15;;;6.65;;
12407;SDS011;6268;48.188;17.134;2022-07-23T07:21:30;7.20;;;6.50;;
12407;SDS011;6268;48.188;17.134;2022-07-23T07:23:59;9.07;;;6.47;;
12407;SDS011;6268;48.188;17.134;2022-07-23T07:26:27;7.32;;;6.50;;
12407;SDS011;6268;48.188;17.134;2022-07-23T07:28:57;7.28;;;6.53;;
12407;SDS011;6268;48.188;17.134;2022-07-23T07:31:26;6.90;;;6.40;;
12407;SDS011;6268;48.188;17.134;2022-07-23T07:33:55;7.20;;;6.60;;
12407;SDS011;6268;48.188;17.134;2022-07-23T07:36:26;7.05;;;6.53;;
12407;SDS011;6268;48.188;17.134;2022-07-23T07:38:54;8.00;;;6.60;;
12407;SDS011;6268;48.188;17.134;2022-07-23T07:41:23;7.97;;;7.18;;
12407;SDS011;6268;48.188;17.134;2022-07-23T07:43:53;8.95;;;6.97;;
12407;SDS011;6268;48.188;17.134;2022-07-23T07:46:21;9.50;;;6.72;;
12407;SDS011;6268;48.188;17.134;2022-07-23T07:48:54;8.38;;;6.75;;
12407;SDS011;6268;48.188;17.134;2022-07-23T07:51:23;7.80;;;6.72;;
12407;SDS011;6268;48.188;17.134;2022-07-23T07:53:56;8.25;;;6.88;;
12407;SDS011;6268;48.188;17.134;2022-07-23T07:56:28;7.47;;;6.78;;
12407;SDS011;6268;48.188;17.134;2022-07-23T07:58:57;7.35;;;6.85;;
12407;SDS011;6268;48.188;17.134;2022-07-23T08:01:29;7.40;;;6.78;;
12407;SDS011;6268;48.188;17.134;2022-07-23T08:03:58;7.97;;;7.15;;
12407;SDS011;6268;48.188;17.134;2022-07-23T08:06:30;7.50;;;6.90;;
12407;SDS011;6268;48.188;17.134;2022-07-23T08:08:58;7.60;;;6.93;;
12407;SDS011;6268;48.188;17.134;2022-07-23T08:11:27;7.18;;;6.68;;
12407;SDS011;6268;48.188;17.134;2022-07-23T08:13:56;7.65;;;6.90;;
12407;SDS011;6268;48.188;17.134;2022-07-23T08:16:25;8.57;;;7.93;;
12407;SDS011;6268;48.188;17.134;2022-07-23T08:18:54;7.30;;;6.80;;
12407;SDS011;6268;48.188;17.134;2022-07-23T08:21:23;8.18;;;7.55;;
12407;SDS011;6268;48.188;17.134;2022-07-23T08:23:53;7.85;;;7.25;;
12407;SDS011;6268;48.188;17.134;2022-07-23T08:26:21;7.45;;;6.75;;
12407;SDS011;6268;48.188;17.134;2022-07-23T08:28:50;8.15;;;7.50;;
12407;SDS011;6268;48.188;17.134;2022-07-23T08:31:19;7.47;;;6.97;;
12407;SDS011;6268;48.188;17.134;2022-07-23T08:33:48;8.60;;;7.50;;
12407;SDS011;6268;48.188;17.134;2022-07-23T08:36:17;8.35;;;7.80;;
12407;SDS011;6268;48.188;17.134;2022-07-23T08:38:45;8.52;;;7.65;;
12407;SDS011;6268;48.188;17.134;2022-07-23T08:41:15;10.25;;;8.18;;
12407;SDS011;6268;48.188;17.134;2022-07-23T08:43:44;8.38;;;7.88;;
12407;SDS011;6268;48.188;17.134;2022-07-23T08:46:13;9.15;;;8.13;;
12407;SDS011;6268;48.188;17.134;2022-07-23T08:48:44;14.43;;;8.25;;
12407;SDS011;6268;48.188;17.134;2022-07-23T08:51:18;8.07;;;7.45;;
12407;SDS011;6268;48.188;17.134;2022-07-23T08:53:48;9.75;;;7.95;;
12407;SDS011;6268;48.188;17.134;2022-07-23T08:56:19;8.70;;;7.68;;
12407;SDS011;6268;48.188;17.134;2022-07-23T08:58:48;8.85;;;8.05;;
12407;SDS011;6268;48.188;17.134;2022-07-23T09:01:16;8.40;;;7.65;;
12407;SDS011;6268;48.188;17.134;2022-07-23T09:03:45;7.32;;;6.85;;
12407;SDS011;6268;48.188;17.134;2022-07-23T09:06:14;7.80;;;7.05;;
12407;SDS011;6268;48.188;17.134;2022-07-23T09:08:43;8.02;;;7.53;;
12407;SDS011;6268;48.188;17.134;2022-07-23T09:11:15;7.53;;;7.03;;
12407;SDS011;6268;48.188;17.134;2022-07-23T09:13:47;7.30;;;6.65;;
12407;SDS011;6268;48.188;17.134;2022-07-23T09:16:20;7.75;;;7.10;;
12407;SDS011;6268;48.188;17.134;2022-07-23T09:18:54;7.50;;;7.10;;
12407;SDS011;6268;48.188;17.134;2022-07-23T09:21:25;7.53;;;6.82;;
12407;SDS011;6268;48.188;17.134;2022-07-23T09:23:57;6.85;;;6.38;;
12407;SDS011;6268;48.188;17.134;2022-07-23T09:26:34;7.32;;;6.50;;
12407;SDS011;6268;48.188;17.134;2022-07-23T09:29:10;6.65;;;6.05;;
12407;SDS011;6268;48.188;17.134;2022-07-23T09:31:45;7.28;;;6.68;;
12407;SDS011;6268;48.188;17.134;2022-07-23T09:34:18;6.50;;;6.10;;
12407;SDS011;6268;48.188;17.134;2022-07-23T09:36:51;6.10;;;5.80;;
12407;SDS011;6268;48.188;17.134;2022-07-23T09:39:26;5.95;;;5.60;;
12407;SDS011;6268;48.188;17.134;2022-07-23T09:41:56;6.28;;;5.88;;
12407;SDS011;6268;48.188;17.134;2022-07-23T09:44:41;6.18;;;5.78;;
12407;SDS011;6268;48.188;17.134;2022-07-23T09:47:11;6.25;;;5.65;;
12407;SDS011;6268;48.188;17.134;2022-07-23T09:49:41;6.13;;;5.63;;
12407;SDS011;6268;48.188;17.134;2022-07-23T09:52:28;7.25;;;6.57;;
12407;SDS011;6268;48.188;17.134;2022-07-23T09:55:02;6.30;;;5.97;;
12407;SDS011;6268;48.188;17.134;2022-07-23T09:57:33;6.85;;;6.25;;
12407;SDS011;6268;48.188;17.134;2022-07-23T10:00:04;7.40;;;6.70;;
12407;SDS011;6268;48.188;17.134;2022-07-23T10:02:37;7.82;;;7.18;;
12407;SDS011;6268;48.188;17.134;2022-07-23T10:05:08;12.73;;;10.07;;
12407;SDS011;6268;48.188;17.134;2022-07-23T10:07:37;7.45;;;6.95;;
12407;SDS011;6268;48.188;17.134;2022-07-23T10:10:08;7.82;;;7.10;;
12407;SDS011;6268;48.188;17.134;2022-07-23T10:12:41;6.82;;;6.25;;
12407;SDS011;6268;48.188;17.134;2022-07-23T10:15:26;7.03;;;6.28;;
12407;SDS011;6268;48.188;17.134;2022-07-23T10:17:56;7.10;;;6.40;;
12407;SDS011;6268;48.188;17.134;2022-07-23T10:20:25;7.25;;;6.55;;
12407;SDS011;6268;48.188;17.134;2022-07-23T10:22:55;6.82;;;6.50;;
12407;SDS011;6268;48.188;17.134;2022-07-23T10:25:39;7.30;;;6.07;;
12407;SDS011;6268;48.188;17.134;2022-07-23T10:28:39;7.47;;;6.85;;
12407;SDS011;6268;48.188;17.134;2022-07-23T10:31:35;6.88;;;6.38;;
12407;SDS011;6268;48.188;17.134;2022-07-23T10:34:30;7.10;;;6.60;;
12407;SDS011;6268;48.188;17.134;2022-07-23T10:37:13;6.68;;;6.25;;
12407;SDS011;6268;48.188;17.134;2022-07-23T10:42:38;6.70;;;6.15;;
12407;SDS011;6268;48.188;17.134;2022-07-23T10:48:14;7.00;;;6.60;;
12407;SDS011;6268;48.188;17.134;2022-07-23T10:53:53;6.78;;;6.18;;
12407;SDS011;6268;48.188;17.134;2022-07-23T11:02:47;7.07;;;6.68;;
12407;SDS011;6268;48.188;17.134;2022-07-23T11:05:20;7.35;;;6.93;;
12407;SDS011;6268;48.188;17.134;2022-07-23T11:08:11;7.18;;;6.55;;
12407;SDS011;6268;48.188;17.134;2022-07-23T11:10:45;6.80;;;6.40;;
12407;SDS011;6268;48.188;17.134;2022-07-23T11:13:31;7.22;;;6.63;;
12407;SDS011;6268;48.188;17.134;2022-07-23T11:16:23;6.38;;;6.07;;
12407;SDS011;6268;48.188;17.134;2022-07-23T11:18:57;6.82;;;6.32;;
12407;SDS011;6268;48.188;17.134;2022-07-23T11:21:43;7.05;;;6.55;;
12407;SDS011;6268;48.188;17.134;2022-07-23T11:24:24;7.78;;;7.28;;
12407;SDS011;6268;48.188;17.134;2022-07-23T11:26:54;6.60;;;6.20;;
12407;SDS011;6268;48.188;17.134;2022-07-23T11:29:45;9.73;;;6.82;;
12407;SDS011;6268;48.188;17.134;2022-07-23T11:32:29;6.82;;;6.32;;
12407;SDS011;6268;48.188;17.134;2022-07-23T11:35:03;6.40;;;6.00;;
12407;SDS011;6268;48.188;17.134;2022-07-23T11:37:50;6.70;;;6.40;;
12407;SDS011;6268;48.188;17.134;2022-07-23T11:40:25;6.80;;;6.40;;
12407;SDS011;6268;48.188;17.134;2022-07-23T11:42:56;6.05;;;5.45;;
12407;SDS011;6268;48.188;17.134;2022-07-23T11:45:30;6.70;;;6.18;;
12407;SDS011;6268;48.188;17.134;2022-07-23T11:48:02;6.78;;;6.30;;
12407;SDS011;6268;48.188;17.134;2022-07-23T11:50:33;5.32;;;4.97;;
12407;SDS011;6268;48.188;17.134;2022-07-23T11:53:03;5.45;;;5.05;;
12407;SDS011;6268;48.188;17.134;2022-07-23T11:55:32;4.75;;;4.55;;
12407;SDS011;6268;48.188;17.134;2022-07-23T11:58:01;6.22;;;5.60;;
12407;SDS011;6268;48.188;17.134;2022-07-23T12:00:30;5.18;;;4.78;;
12407;SDS011;6268;48.188;17.134;2022-07-23T12:03:06;5.50;;;5.00;;
12407;SDS011;6268;48.188;17.134;2022-07-23T12:05:36;3.88;;;3.75;;
12407;SDS011;6268;48.188;17.134;2022-07-23T12:08:08;6.25;;;5.60;;
12407;SDS011;6268;48.188;17.134;2022-07-23T12:10:39;9.18;;;5.95;;
12407;SDS011;6268;48.188;17.134;2022-07-23T12:13:10;6.63;;;6.13;;
12407;SDS011;6268;48.188;17.134;2022-07-23T12:15:43;5.20;;;4.90;;
12407;SDS011;6268;48.188;17.134;2022-07-23T12:18:15;4.65;;;4.38;;
12407;SDS011;6268;48.188;17.134;2022-07-23T12:20:50;4.22;;;4.03;;
12407;SDS011;6268;48.188;17.134;2022-07-23T12:23:24;6.90;;;4.40;;
12407;SDS011;6268;48.188;17.134;2022-07-23T12:25:54;4.78;;;4.47;;
12407;SDS011;6268;48.188;17.134;2022-07-23T12:28:30;4.97;;;4.60;;
12407;SDS011;6268;48.188;17.134;2022-07-23T12:31:00;4.65;;;4.45;;
12407;SDS011;6268;48.188;17.134;2022-07-23T12:33:30;5.00;;;4.60;;
12407;SDS011;6268;48.188;17.134;2022-07-23T12:36:03;4.72;;;4.43;;
12407;SDS011;6268;48.188;17.134;2022-07-23T12:38:38;6.93;;;4.45;;
12407;SDS011;6268;48.188;17.134;2022-07-23T12:41:09;5.82;;;5.32;;
12407;SDS011;6268;48.188;17.134;2022-07-23T12:43:38;3.60;;;3.35;;
12407;SDS011;6268;48.188;17.134;2022-07-23T12:46:10;3.50;;;3.20;;
12407;SDS011;6268;48.188;17.134;2022-07-23T12:48:49;3.88;;;3.55;;
12407;SDS011;6268;48.188;17.134;2022-07-23T12:51:21;2.65;;;2.55;;
12407;SDS011;6268;48.188;17.134;2022-07-23T12:53:55;2.83;;;2.65;;
12407;SDS011;6268;48.188;17.134;2022-07-23T12:56:33;3.08;;;2.88;;
12407;SDS011;6268;48.188;17.134;2022-07-23T12:59:05;3.78;;;3.58;;
12407;SDS011;6268;48.188;17.134;2022-07-23T13:01:37;3.35;;;3.13;;
12407;SDS011;6268;48.188;17.134;2022-07-23T13:04:09;5.15;;;4.18;;
12407;SDS011;6268;48.188;17.134;2022-07-23T13:06:44;4.88;;;4.53;;
12407;SDS011;6268;48.188;17.134;2022-07-23T13:09:16;4.47;;;4.00;;
12407;SDS011;6268;48.188;17.134;2022-07-23T13:11:49;3.95;;;3.70;;
12407;SDS011;6268;48.188;17.134;2022-07-23T13:14:22;4.40;;;4.20;;
12407;SDS011;6268;48.188;17.134;2022-07-23T13:16:53;5.15;;;4.07;;
12407;SDS011;6268;48.188;17.134;2022-07-23T13:19:25;4.85;;;4.55;;
12407;SDS011;6268;48.188;17.134;2022-07-23T13:21:54;4.80;;;4.50;;
12407;SDS011;6268;48.188;17.134;2022-07-23T13:24:25;5.00;;;4.60;;
12407;SDS011;6268;48.188;17.134;2022-07-23T13:26:54;4.82;;;4.63;;
12407;SDS011;6268;48.188;17.134;2022-07-23T13:29:24;5.35;;;5.05;;
12407;SDS011;6268;48.188;17.134;2022-07-23T13:31:53;4.97;;;4.57;;
12407;SDS011;6268;48.188;17.134;2022-07-23T13:34:24;7.68;;;5.95;;
12407;SDS011;6268;48.188;17.134;2022-07-23T13:36:53;19.10;;;10.13;;
12407;SDS011;6268;48.188;17.134;2022-07-23T13:39:24;7.38;;;6.88;;
12407;SDS011;6268;48.188;17.134;2022-07-23T13:41:54;6.70;;;6.00;;
12407;SDS011;6268;48.188;17.134;2022-07-23T13:44:24;7.30;;;6.63;;
12407;SDS011;6268;48.188;17.134;2022-07-23T13:46:53;8.35;;;7.75;;
12407;SDS011;6268;48.188;17.134;2022-07-23T13:49:23;7.25;;;6.75;;
12407;SDS011;6268;48.188;17.134;2022-07-23T13:51:51;7.38;;;6.35;;
12407;SDS011;6268;48.188;17.134;2022-07-23T13:54:22;7.53;;;6.82;;
12407;SDS011;6268;48.188;17.134;2022-07-23T13:56:52;7.20;;;6.70;;
12407;SDS011;6268;48.188;17.134;2022-07-23T13:59:23;7.95;;;7.45;;
12407;SDS011;6268;48.188;17.134;2022-07-23T14:01:52;7.90;;;7.10;;
12407;SDS011;6268;48.188;17.134;2022-07-23T14:04:43;7.47;;;6.85;;
12407;SDS011;6268;48.188;17.134;2022-07-23T14:07:15;11.32;;;6.93;;
12407;SDS011;6268;48.188;17.134;2022-07-23T14:09:45;7.88;;;5.75;;
12407;SDS011;6268;48.188;17.134;2022-07-23T14:12:16;6.88;;;6.30;;
12407;SDS011;6268;48.188;17.134;2022-07-23T14:14:49;8.10;;;6.57;;
12407;SDS011;6268;48.188;17.134;2022-07-23T14:17:19;8.55;;;7.90;;
12407;SDS011;6268;48.188;17.134;2022-07-23T14:19:48;7.93;;;7.07;;
12407;SDS011;6268;48.188;17.134;2022-07-23T14:22:16;7.00;;;6.43;;
12407;SDS011;6268;48.188;17.134;2022-07-23T14:24:46;7.57;;;6.30;;
12407;SDS011;6268;48.188;17.134;2022-07-23T14:27:20;7.03;;;6.18;;
12407;SDS011;6268;48.188;17.134;2022-07-23T14:29:49;9.77;;;6.63;;
12407;SDS011;6268;48.188;17.134;2022-07-23T14:32:18;5.90;;;5.40;;
12407;SDS011;6268;48.188;17.134;2022-07-23T14:34:47;6.15;;;5.60;;
12407;SDS011;6268;48.188;17.134;2022-07-23T14:37:17;8.50;;;6.13;;
12407;SDS011;6268;48.188;17.134;2022-07-23T14:39:46;6.57;;;5.60;;
12407;SDS011;6268;48.188;17.134;2022-07-23T14:42:15;6.13;;;5.47;;
12407;SDS011;6268;48.188;17.134;2022-07-23T14:44:46;5.55;;;5.15;;
12407;SDS011;6268;48.188;17.134;2022-07-23T14:47:15;7.53;;;5.35;;
12407;SDS011;6268;48.188;17.134;2022-07-23T14:49:47;6.00;;;5.40;;
12407;SDS011;6268;48.188;17.134;2022-07-23T14:52:19;5.45;;;5.10;;
12407;SDS011;6268;48.188;17.134;2022-07-23T14:54:48;6.22;;;5.53;;
12407;SDS011;6268;48.188;17.134;2022-07-23T14:57:16;5.78;;;5.28;;
12407;SDS011;6268;48.188;17.134;2022-07-23T14:59:53;5.78;;;5.38;;
12407;SDS011;6268;48.188;17.134;2022-07-23T15:02:25;5.25;;;4.95;;
12407;SDS011;6268;48.188;17.134;2022-07-23T15:04:56;9.68;;;5.50;;
12407;SDS011;6268;48.188;17.134;2022-07-23T15:07:27;5.47;;;4.97;;
12407;SDS011;6268;48.188;17.134;2022-07-23T15:09:58;5.88;;;5.50;;
12407;SDS011;6268;48.188;17.134;2022-07-23T15:12:28;5.70;;;5.32;;
12407;SDS011;6268;48.188;17.134;2022-07-23T15:14:58;4.85;;;4.40;;
12407;SDS011;6268;48.188;17.134;2022-07-23T15:17:27;7.00;;;4.82;;
12407;SDS011;6268;48.188;17.134;2022-07-23T15:20:00;5.03;;;4.72;;
12407;SDS011;6268;48.188;17.134;2022-07-23T15:22:29;6.55;;;4.90;;